Time;durP1;ratioP1;P1;durP2;ratioP2;P2;SDS_P1;SDS_P2;PMS_P1;PMS_P2;Temp;Humidity;BMP_temperature;BMP_pressure;BME280_temperature;BME280_humidity;BME280_pressure;Samples;Min_cycle;Max_cycle;Signal;HPM_P1;HPM_P2
2023/10/17 00:04:41;;;;;;;11.30;1.05;;;;;;;11.98;78.47;100102.94;10295804;28;20056;-82
2023/10/17 00:09:42;;;;;;;3.38;0.50;;;;;;;12.33;78.71;100178.63;10293439;28;20418;-82
2023/10/17 00:14:57;;;;;;;9.85;0.98;;;;;;;12.36;78.64;100209.41;10294484;28;20042;-82
2023/10/17 00:19:59;;;;;;;8.02;1.23;;;;;;;11.94;77.76;100167.38;10294157;28;20058;-82
2023/10/17 00:25:09;;;;;;;21.48;1.30;;;;;;;11.94;77.35;100180.69;10293469;28;20046;-79
2023/10/17 00:30:17;;;;;;;5.07;1.20;;;;;;;12.13;76.14;100246.72;10293431;28;20038;-79
2023/10/17 00:35:21;;;;;;;7.65;0.80;;;;;;;11.96;76.03;100234.56;10293317;28;20038;-79
2023/10/17 00:40:34;;;;;;;11.05;1.02;;;;;;;11.97;76.30;100268.19;10293686;28;20043;-80
2023/10/17 00:45:35;;;;;;;7.70;0.82;;;;;;;10.72;76.30;100090.16;10293336;28;20070;-79
2023/10/17 00:50:38;;;;;;;6.22;0.75;;;;;;;11.83;76.77;100288.38;10293225;28;20051;-80
2023/10/17 00:55:38;;;;;;;5.65;0.85;;;;;;;11.77;77.27;100300.56;10292424;28;20521;-82
2023/10/17 01:00:41;;;;;;;3.70;0.95;;;;;;;11.33;77.79;100255.94;10292542;28;20104;-81
2023/10/17 01:05:57;;;;;;;9.90;1.38;;;;;;;11.28;78.02;100276.91;10291956;28;20039;-82
2023/10/17 01:10:57;;;;;;;7.55;1.27;;;;;;;11.45;76.25;100349.47;10284071;28;20058;-78
2023/10/17 01:15:58;;;;;;;6.45;1.08;;;;;;;11.17;75.08;100349.91;10271315;28;20442;-79
2023/10/17 01:20:59;;;;;;;6.28;1.13;;;;;;;10.62;74.46;100302.91;10291984;28;20054;-81
2023/10/17 01:26:04;;;;;;;7.65;1.20;;;;;;;9.80;73.63;100193.28;10252119;29;20039;-82
2023/10/17 01:31:06;;;;;;;7.75;1.20;;;;;;;10.87;72.75;100411.78;10252688;29;20050;-80
2023/10/17 01:36:09;;;;;;;6.85;1.00;;;;;;;9.55;71.06;100235.72;10251082;29;20046;-80
2023/10/17 01:41:10;;;;;;;3.13;0.80;;;;;;;10.55;70.17;100404.66;10264990;28;20094;-80
2023/10/17 01:46:15;;;;;;;3.15;0.80;;;;;;;10.01;70.00;100360.78;10291802;28;20050;-84
2023/10/17 01:51:16;;;;;;;6.45;0.68;;;;;;;10.16;70.19;100407.94;10299236;28;20077;-84
2023/10/17 01:56:22;;;;;;;3.60;0.65;;;;;;;9.97;70.73;100406.41;10300003;28;20078;-80
2023/10/17 02:01:29;;;;;;;7.35;0.73;;;;;;;10.04;72.09;100449.88;10300041;28;20054;-81
2023/10/17 02:06:32;;;;;;;4.25;1.00;;;;;;;9.46;72.75;100369.28;10298660;28;20081;-83
2023/10/17 02:11:40;;;;;;;6.47;1.00;;;;;;;9.78;73.50;100450.81;10281625;28;20043;-84
2023/10/17 02:16:41;;;;;;;7.47;1.20;;;;;;;9.57;73.92;100463.63;10298986;28;20046;-81
2023/10/17 02:21:44;;;;;;;3.08;0.75;;;;;;;9.51;74.62;100481.03;10298368;28;20601;-84
2023/10/17 02:27:00;;;;;;;2.22;0.85;;;;;;;9.14;74.67;100417.66;10282675;28;20047;-84
2023/10/17 02:32:01;;;;;;;2.35;0.60;;;;;;;9.32;74.24;100458.19;10258268;29;20043;-87
2023/10/17 02:37:04;;;;;;;2.08;0.60;;;;;;;8.90;74.08;100390.03;10280266;28;20046;-85
2023/10/17 02:42:08;;;;;;;4.55;0.80;;;;;;;9.39;73.96;100482.25;10262186;28;20192;-84
2023/10/17 02:47:13;;;;;;;1.92;0.68;;;;;;;9.41;73.53;100493.53;10255551;29;20074;-86
2023/10/17 02:52:17;;;;;;;1.92;0.47;;;;;;;9.21;72.91;100473.53;10257347;29;20043;-85
2023/10/17 02:57:18;;;;;;;0.95;0.38;;;;;;;9.41;71.68;100528.00;10257871;29;20039;-86
2023/10/17 03:02:25;;;;;;;2.42;0.50;;;;;;;9.33;71.64;100526.16;10256438;28;20414;-89
2023/10/17 03:07:25;;;;;;;5.82;0.55;;;;;;;9.20;71.86;100525.72;10256494;29;20043;-88
2023/10/17 03:12:29;;;;;;;0.75;0.45;;;;;;;8.95;71.49;100500.03;10257046;29;20039;-85
2023/10/17 03:17:30;;;;;;;2.70;0.87;;;;;;;9.19;71.23;100552.38;10257783;29;20087;-86
2023/10/17 03:22:31;;;;;;;3.00;0.60;;;;;;;8.88;71.48;100507.72;10257211;29;20043;-86
2023/10/17 03:27:48;;;;;;;6.05;0.50;;;;;;;9.33;71.03;100575.66;10256479;28;20054;-86
2023/10/17 03:33:26;;;;;;;1.42;0.60;;;;;;;9.32;70.90;100566.06;10256281;29;20043;-90
2023/10/17 03:38:16;;;;;;;3.55;0.70;;;;;;;9.19;70.63;100563.00;10253628;28;20551;-76
2023/10/17 03:43:21;;;;;;;10.20;0.80;;;;;;;9.24;70.57;100592.50;10255023;29;20047;-73
2023/10/17 03:48:22;;;;;;;;;;;;;;;9.37;70.19;100617.66;10256511;28;20050;-88
2023/10/17 03:53:29;;;;;;;4.10;0.60;;;;;;;9.19;71.03;100635.38;10255763;28;19929;-73
2023/10/17 04:03:31;;;;;;;3.13;1.02;;;;;;;9.26;71.40;100672.72;10295479;28;20043;-79
2023/10/17 04:08:34;;;;;;;5.93;0.93;;;;;;;9.29;71.15;100678.53;10293401;28;20042;-70
2023/10/17 04:13:35;;;;;;;1.58;0.60;;;;;;;9.33;71.65;100690.53;10293802;28;20038;-72
2023/10/17 04:18:39;;;;;;;6.47;1.00;;;;;;;9.21;71.75;100681.09;10294063;28;20062;-78
2023/10/17 04:23:42;;;;;;;2.83;0.97;;;;;;;8.84;71.83;100629.06;10293810;28;20043;-74
2023/10/17 04:28:49;;;;;;;4.60;1.00;;;;;;;9.43;71.96;100734.69;10294496;28;20129;-71
2023/10/17 04:33:56;;;;;;;3.33;1.38;;;;;;;9.29;71.57;100731.56;10294695;28;20050;-74
2023/10/17 04:44:16;;;;;;;2.95;0.80;;;;;;;9.50;71.18;100741.88;10293463;28;20050;-77
2023/10/17 04:49:19;;;;;;;4.22;1.08;;;;;;;9.53;70.23;100717.72;10286634;28;20410;-84
2023/10/17 04:54:29;;;;;;;3.42;0.90;;;;;;;10.00;69.59;100735.19;10270003;28;20561;-85
2023/10/17 04:59:51;;;;;;;5.18;1.30;;;;;;;10.08;68.50;100700.75;10293069;28;20066;-87
2023/10/17 06:19:24;;;;;;;6.45;1.77;;;;;;;10.94;64.97;100857.50;10292585;28;20078;-88
2023/10/17 06:30:26;;;;;;;3.55;1.63;;;;;;;11.45;61.52;100854.91;10291502;28;20043;-84
2023/10/17 06:35:20;;;;;;;6.65;1.85;;;;;;;11.82;60.06;100874.97;10295041;28;20055;-87
2023/10/17 06:40:30;;;;;;;4.97;1.50;;;;;;;11.81;58.19;100785.44;10299607;28;20050;-84
2023/10/17 06:45:36;;;;;;;10.30;1.90;;;;;;;12.09;57.09;100773.53;10298175;28;20086;-87
2023/10/17 06:56:17;;;;;;;6.90;1.63;;;;;;;13.44;54.69;100893.72;10174703;29;20111;-90
2023/10/17 07:01:27;;;;;;;12.18;1.92;;;;;;;13.17;53.66;100821.06;10270134;28;20092;-92
2023/10/17 07:06:29;;;;;;;4.60;1.30;;;;;;;13.28;52.82;100819.03;10297221;28;20138;-84
2023/10/17 07:11:30;;;;;;;4.13;1.42;;;;;;;13.55;52.31;100850.63;10280136;28;20074;-87
2023/10/17 07:27:01;;;;;;;6.65;1.70;;;;;;;14.05;50.88;100851.94;10297257;28;20050;-85
2023/10/17 07:32:16;;;;;;;6.30;1.42;;;;;;;14.16;50.21;100843.53;10295671;28;20039;-84
2023/10/17 07:42:30;;;;;;;8.03;1.63;;;;;;;14.20;49.02;100833.31;10296386;28;20565;-83
2023/10/17 07:47:33;;;;;;;7.07;1.42;;;;;;;14.68;48.40;100911.44;10295545;28;20448;-85
2023/10/17 07:52:38;;;;;;;5.40;1.80;;;;;;;13.51;47.38;100699.81;10295045;28;20046;-84
2023/10/17 07:57:40;;;;;;;5.75;1.50;;;;;;;14.51;47.83;100838.59;10295140;28;20293;-88
2023/10/17 08:02:41;;;;;;;7.85;1.30;;;;;;;14.42;46.72;100823.63;10295358;28;20038;-86
2023/10/17 08:07:42;;;;;;;5.13;1.20;;;;;;;14.72;46.00;100866.47;10294491;28;20035;-87
2023/10/17 08:12:42;;;;;;;5.10;1.38;;;;;;;14.48;45.67;100797.97;10295769;28;20094;-87
2023/10/17 08:17:43;;;;;;;5.47;1.23;;;;;;;14.72;45.02;100815.66;10294992;28;20062;-88
2023/10/17 08:22:54;;;;;;;6.18;1.35;;;;;;;15.39;45.00;100901.16;10294135;28;20043;-87
2023/10/17 08:27:56;;;;;;;9.18;1.45;;;;;;;15.55;44.91;100872.53;10293785;28;20066;-85
2023/10/17 08:37:59;;;;;;;5.30;1.65;;;;;;;15.64;44.14;100885.63;10293709;28;20047;-83
2023/10/17 08:43:03;;;;;;;6.68;1.27;;;;;;;15.01;43.73;100785.38;10276846;28;20043;-84
2023/10/17 08:48:06;;;;;;;4.95;1.42;;;;;;;15.82;43.72;100881.72;10293898;28;20046;-86
2023/10/17 08:53:19;;;;;;;6.15;1.70;;;;;;;15.48;42.54;100809.03;10294017;28;20133;-83
2023/10/17 08:58:43;;;;;;;6.70;1.88;;;;;;;15.56;43.20;100836.72;10292490;28;20137;-85
2023/10/17 09:03:46;;;;;;;5.03;1.70;;;;;;;15.98;43.10;100866.25;10292203;28;20137;-85
2023/10/17 09:18:54;;;;;;;3.80;1.30;;;;;;;15.65;42.13;100774.81;10292627;28;20062;-85
2023/10/17 09:23:54;;;;;;;4.72;1.33;;;;;;;15.66;41.06;100768.41;10292668;28;20065;-82
2023/10/17 09:29:01;;;;;;;7.28;1.88;;;;;;;16.29;42.03;100843.66;10292099;28;20043;-81
2023/10/17 09:34:05;;;;;;;6.13;1.63;;;;;;;16.49;41.27;100846.50;10291793;28;20148;-82
2023/10/17 09:39:14;;;;;;;5.35;1.50;;;;;;;16.37;41.11;100826.59;10292354;28;20517;-81
2023/10/17 09:44:15;;;;;;;2.85;1.40;;;;;;;16.62;41.68;100854.63;10292008;28;20406;-84
2023/10/17 09:49:25;;;;;;;8.02;1.25;;;;;;;16.25;42.04;100761.16;10293173;28;20054;-88
2023/10/17 09:54:31;;;;;;;8.32;1.45;;;;;;;16.41;41.38;100796.50;10292716;28;20081;-88
2023/10/17 09:59:40;;;;;;;10.68;5.45;;;;;;;16.54;40.72;100857.50;10291630;28;20173;-86
2023/10/17 10:04:43;;;;;;;37.75;23.55;;;;;;;16.16;41.57;100819.44;10291049;28;20038;-84
2023/10/17 10:09:43;;;;;;;34.47;20.23;;;;;;;16.43;41.43;100831.19;10277194;28;20041;-84
2023/10/17 10:14:44;;;;;;;12.32;5.13;;;;;;;16.25;41.20;100770.00;10298574;28;20053;-87
2023/10/17 10:19:46;;;;;;;14.73;2.10;;;;;;;16.77;40.75;100843.84;10299277;28;20063;-88
2023/10/17 10:25:02;;;;;;;7.75;1.70;;;;;;;16.76;40.40;100826.09;10297953;28;20533;-85
2023/10/17 10:30:38;;;;;;;23.10;11.07;;;;;;;16.52;40.74;100847.97;10297562;28;20039;-85
2023/10/17 10:35:45;;;;;;;10.25;2.25;;;;;;;16.28;40.74;100822.41;10281153;28;20529;-86
2023/10/17 10:40:46;;;;;;;14.45;2.88;;;;;;;16.48;40.80;100785.81;10298264;28;20046;-85
2023/10/17 10:45:47;;;;;;;11.43;4.40;;;;;;;16.75;40.47;100810.16;10298215;28;20046;-87
2023/10/17 10:50:49;;;;;;;3.72;1.10;;;;;;;16.76;40.14;100828.78;10299071;28;20058;-89
2023/10/17 10:56:02;;;;;;;5.13;1.52;;;;;;;16.31;40.25;100771.91;10297823;28;20124;-84
2023/10/17 11:01:07;;;;;;;5.40;1.58;;;;;;;16.46;40.12;100800.47;10296942;28;20061;-86
2023/10/17 11:06:08;;;;;;;8.40;3.17;;;;;;;16.59;40.36;100805.94;10296107;28;20046;-86
2023/10/17 11:11:10;;;;;;;9.23;1.48;;;;;;;16.03;40.16;100690.66;10297113;28;20039;-87
2023/10/17 11:16:16;;;;;;;5.07;2.28;;;;;;;16.84;40.25;100836.69;10296037;28;20049;-84
2023/10/17 11:21:22;;;;;;;6.50;1.42;;;;;;;16.67;39.64;100816.50;10297143;28;20129;-86
2023/10/17 11:26:29;;;;;;;10.40;3.65;;;;;;;16.78;39.94;100818.69;10295975;28;20039;-85
2023/10/17 11:31:31;;;;;;;30.65;13.43;;;;;;;16.75;39.74;100816.38;10296465;28;20046;-86
2023/10/17 11:36:51;;;;;;;7.85;2.75;;;;;;;16.89;39.53;100826.16;10296145;28;20046;-83
2023/10/17 11:41:55;;;;;;;10.77;5.03;;;;;;;16.64;40.01;100784.72;10295839;28;20498;-85
2023/10/17 11:47:02;;;;;;;4.07;1.40;;;;;;;16.65;39.94;100791.72;10296524;28;20047;-86
2023/10/17 11:52:13;;;;;;;5.18;1.40;;;;;;;16.50;39.63;100809.78;10294579;28;20093;-89
2023/10/17 11:57:14;;;;;;;3.75;1.20;;;;;;;16.07;40.14;100745.53;10296138;28;20043;-87
2023/10/17 12:02:14;;;;;;;14.23;3.60;;;;;;;16.32;40.30;100792.31;10296632;28;20074;-88
2023/10/17 12:07:15;;;;;;;9.35;2.97;;;;;;;16.23;40.14;100771.22;10296158;28;20113;-78
2023/10/17 12:12:19;;;;;;;23.38;10.63;;;;;;;16.54;40.16;100819.09;10294289;28;20086;-79
2023/10/17 12:17:20;;;;;;;8.40;2.80;;;;;;;16.17;40.16;100778.19;10294293;28;20047;-82
2023/10/17 12:22:20;;;;;;;13.25;5.70;;;;;;;16.23;40.62;100820.28;10294843;28;20038;-78
2023/10/17 12:27:21;;;;;;;5.18;1.85;;;;;;;15.91;40.81;100766.25;10294180;28;20038;-77
2023/10/17 12:32:22;;;;;;;13.07;3.53;;;;;;;16.18;41.03;100820.91;10294497;28;20031;-76
2023/10/17 12:37:23;;;;;;;6.10;2.70;;;;;;;16.12;40.91;100839.56;10276344;28;20441;-83
2023/10/17 12:42:24;;;;;;;12.32;5.53;;;;;;;15.75;41.35;100788.72;10276677;28;20034;-83
2023/10/17 12:47:24;;;;;;;12.10;6.13;;;;;;;15.67;41.72;100766.56;10273819;28;20043;-86
2023/10/17 12:52:26;;;;;;;5.30;1.63;;;;;;;15.19;41.19;100710.88;10293155;28;20090;-84
2023/10/17 12:57:27;;;;;;;30.83;20.50;;;;;;;15.14;41.05;100736.56;10293452;28;20057;-84
2023/10/17 13:02:29;;;;;;;9.70;5.82;;;;;;;15.31;41.27;100775.44;10288606;28;20045;-86
2023/10/17 13:07:29;;;;;;;10.55;3.60;;;;;;;14.43;41.53;100669.41;10283596;28;20153;-85
2023/10/17 13:12:30;;;;;;;6.40;2.30;;;;;;;15.00;42.22;100768.50;10276712;28;20134;-86
2023/10/17 13:17:32;;;;;;;8.48;1.65;;;;;;;15.32;42.21;100824.50;10284099;28;20066;-86
2023/10/17 13:22:42;;;;;;;8.75;2.35;;;;;;;14.52;42.27;100719.94;10292990;28;20455;-87
2023/10/17 13:27:42;;;;;;;8.50;1.83;;;;;;;14.56;42.70;100745.28;10257457;28;20043;-86
2023/10/17 13:32:44;;;;;;;9.50;2.10;;;;;;;14.80;42.95;100791.47;10250798;28;20039;-84
2023/10/17 13:37:51;;;;;;;9.18;2.72;;;;;;;14.90;43.15;100840.19;10251483;28;20695;-83
2023/10/17 13:42:55;;;;;;;6.05;1.92;;;;;;;14.45;43.55;100785.81;10255946;28;20045;-84
2023/10/17 13:47:55;;;;;;;;;;;;;;;14.76;43.54;100846.38;10249461;28;20047;-82
2023/10/17 13:53:06;;;;;;;6.47;1.05;;;;;;;14.19;43.82;100804.09;10259809;28;19922;-85
2023/10/17 13:58:07;;;;;;;2.60;1.10;;;;;;;13.77;44.23;100762.72;10251086;29;20399;-88
2023/10/17 14:03:09;;;;;;;6.97;1.40;;;;;;;14.14;44.44;100850.88;10250141;29;20051;-88
2023/10/17 14:08:13;;;;;;;10.98;2.22;;;;;;;13.22;45.05;100745.84;10248008;29;20046;-87
2023/10/17 14:13:16;;;;;;;40.80;4.03;;;;;;;13.69;46.00;100862.38;10251248;29;20058;-88
2023/10/17 14:18:18;;;;;;;24.92;3.78;;;;;;;13.38;47.29;100860.53;10250681;29;20055;-86
2023/10/17 14:23:26;;;;;;;42.78;3.95;;;;;;;12.99;48.36;100860.47;10252694;28;20137;-87
2023/10/17 14:28:27;;;;;;;34.88;2.95;;;;;;;12.60;48.64;100837.25;10273909;28;20105;-85
2023/10/17 14:33:28;;;;;;;13.73;2.25;;;;;;;12.30;48.71;100812.13;10252914;29;20086;-86
2023/10/17 14:38:28;;;;;;;12.90;1.50;;;;;;;12.57;49.13;100886.38;10235912;29;20141;-86
2023/10/17 14:43:29;;;;;;;27.83;4.07;;;;;;;12.39;49.59;100899.03;10253383;29;20125;-87
2023/10/17 14:48:30;;;;;;;30.70;6.55;;;;;;;12.13;50.55;100880.53;10258535;28;20039;-86
2023/10/17 14:53:31;;;;;;;29.30;6.88;;;;;;;11.76;51.13;100873.81;10292603;28;20102;-86
2023/10/17 14:58:31;;;;;;;40.05;6.40;;;;;;;11.57;51.97;100879.38;10299072;28;20050;-86
2023/10/17 15:03:32;;;;;;;45.70;5.47;;;;;;;11.59;52.79;100914.66;10299383;28;20153;-85
2023/10/17 15:08:33;;;;;;;14.27;6.55;;;;;;;11.22;53.41;100897.22;10299325;28;20042;-87
2023/10/17 15:13:34;;;;;;;28.90;8.73;;;;;;;10.81;53.93;100854.44;10298023;28;20101;-84
2023/10/17 15:18:34;;;;;;;35.03;11.10;;;;;;;10.61;54.85;100840.53;10293151;28;20142;-88
2023/10/17 15:23:36;;;;;;;23.45;8.77;;;;;;;11.07;55.14;100933.31;10274734;28;20038;-86
2023/10/17 15:28:45;;;;;;;43.70;15.88;;;;;;;9.92;56.02;100781.06;10298962;28;20134;-89
2023/10/17 15:33:46;;;;;;;40.10;18.80;;;;;;;10.30;56.15;100860.56;10299580;28;20044;-87
2023/10/17 15:38:49;;;;;;;43.13;14.98;;;;;;;10.34;56.61;100893.78;10299643;28;20074;-87
2023/10/17 15:43:50;;;;;;;38.83;11.80;;;;;;;10.03;57.27;100872.91;10278850;28;20046;-88
2023/10/17 15:48:51;;;;;;;23.90;6.72;;;;;;;9.99;57.78;100877.69;10289337;28;20402;-86
2023/10/17 15:53:53;;;;;;;15.00;5.15;;;;;;;10.26;58.35;100944.94;10298561;28;20196;-87
2023/10/17 15:58:54;;;;;;;11.02;6.80;;;;;;;9.82;58.35;100881.16;10283421;28;20053;-86
2023/10/17 16:03:55;;;;;;;21.42;12.13;;;;;;;9.30;58.39;100834.00;10295049;28;20051;-86
2023/10/17 16:08:55;;;;;;;13.38;4.55;;;;;;;9.06;58.46;100831.03;10293170;28;20038;-87
2023/10/17 16:13:58;;;;;;;13.05;3.70;;;;;;;9.48;58.79;100905.66;10295008;28;20045;-87
2023/10/17 16:18:59;;;;;;;15.32;2.83;;;;;;;9.36;59.05;100902.34;10277153;28;20430;-87
2023/10/17 16:23:59;;;;;;;10.57;2.90;;;;;;;9.72;58.99;100960.81;10296558;28;20043;-88
2023/10/17 16:29:00;;;;;;;10.73;5.57;;;;;;;9.69;59.33;100970.84;10298980;28;20521;-87
2023/10/17 16:34:01;;;;;;;18.13;7.97;;;;;;;9.34;60.04;100935.28;10298221;28;20092;-87
2023/10/17 16:39:02;;;;;;;29.30;9.13;;;;;;;9.09;60.59;100919.06;10282199;28;20564;-84
2023/10/17 16:44:04;;;;;;;32.22;7.55;;;;;;;8.50;61.49;100853.94;10277158;28;20046;-82
2023/10/17 16:49:05;;;;;;;35.78;6.38;;;;;;;8.96;62.06;100960.91;10265535;28;20075;-85
2023/10/17 16:54:06;;;;;;;13.93;3.65;;;;;;;8.82;62.64;100945.44;10293165;28;20047;-83
2023/10/17 16:59:07;;;;;;;7.80;2.33;;;;;;;8.57;62.70;100921.22;10292791;28;20042;-82
2023/10/17 17:04:08;;;;;;;7.43;2.03;;;;;;;8.90;63.00;100980.03;10292821;28;20106;-85
2023/10/17 17:09:09;;;;;;;11.27;2.28;;;;;;;8.50;62.79;100930.72;10270788;28;20047;-84
2023/10/17 17:14:11;;;;;;;10.63;2.90;;;;;;;8.62;62.60;100965.84;10216084;29;20039;-80
2023/10/17 17:19:17;;;;;;;8.40;3.10;;;;;;;8.53;62.83;100966.69;10256719;28;20098;-79
2023/10/17 17:24:19;;;;;;;6.90;2.53;;;;;;;8.48;63.36;100987.44;10269370;28;20047;-79
2023/10/17 17:29:24;;;;;;;7.22;1.60;;;;;;;8.26;64.93;100991.16;10250686;28;20053;-80
2023/10/17 17:34:25;;;;;;;5.32;1.60;;;;;;;7.63;64.63;100935.84;10252010;29;20074;-80
2023/10/17 17:39:26;;;;;;;13.60;1.67;;;;;;;7.37;65.13;100933.69;10256230;28;20070;-80
2023/10/17 17:44:27;;;;;;;19.90;4.18;;;;;;;7.68;65.66;100984.72;10287608;28;20050;-78
2023/10/17 17:49:29;;;;;;;27.75;9.85;;;;;;;7.60;65.83;100995.13;10279538;28;20043;-80
2023/10/17 17:54:30;;;;;;;14.27;4.75;;;;;;;7.57;65.83;101016.56;10279064;28;20042;-82
2023/10/17 17:59:32;;;;;;;27.73;3.97;;;;;;;7.34;66.98;101017.69;10290959;28;20053;-82
2023/10/17 18:04:33;;;;;;;7.18;3.63;;;;;;;7.23;67.15;101029.97;10291172;28;20049;-82
2023/10/17 18:09:34;;;;;;;18.67;6.85;;;;;;;7.16;67.16;101028.84;10291852;28;20096;-80
2023/10/17 18:14:35;;;;;;;18.23;6.25;;;;;;;7.19;67.49;101039.16;10287407;28;20047;-80
2023/10/17 18:19:37;;;;;;;9.95;5.20;;;;;;;7.08;67.50;101036.56;10281818;28;20058;-78
2023/10/17 18:24:38;;;;;;;24.05;4.38;;;;;;;6.69;68.14;100983.44;10265512;28;20055;-78
2023/10/17 18:29:40;;;;;;;13.15;3.13;;;;;;;6.80;68.26;101027.47;10292420;28;20093;-78
2023/10/17 18:34:42;;;;;;;15.73;2.97;;;;;;;6.85;69.36;101035.84;10282515;28;20097;-76
2023/10/17 18:39:44;;;;;;;11.63;2.47;;;;;;;6.56;69.19;101001.28;10297906;28;20510;-82
2023/10/17 18:44:45;;;;;;;17.00;3.05;;;;;;;6.63;69.78;101029.69;10297595;28;20039;-82
2023/10/17 18:49:46;;;;;;;6.20;2.08;;;;;;;6.22;69.60;100990.81;10297949;28;20082;-78
2023/10/17 18:54:47;;;;;;;12.90;2.30;;;;;;;6.35;70.48;101036.38;10297954;28;20073;-77
2023/10/17 18:59:48;;;;;;;15.57;2.20;;;;;;;6.28;71.30;101035.19;10297510;28;20046;-82
2023/10/17 19:04:49;;;;;;;6.57;2.08;;;;;;;6.24;71.57;101044.31;10296719;28;20046;-76
2023/10/17 19:09:49;;;;;;;16.77;1.88;;;;;;;5.58;71.90;100948.47;10297422;28;20042;-78
2023/10/17 19:14:50;;;;;;;9.27;2.03;;;;;;;6.16;72.96;101050.22;10297216;28;20038;-77
2023/10/17 19:19:52;;;;;;;6.88;1.80;;;;;;;6.14;72.96;101038.09;10297529;28;20069;-77
2023/10/17 19:24:53;;;;;;;9.35;1.70;;;;;;;5.84;74.13;100988.59;10296186;28;20072;-75
2023/10/17 19:29:54;;;;;;;7.55;2.60;;;;;;;6.00;73.27;101012.81;10296084;28;20047;-76
2023/10/17 19:34:55;;;;;;;10.05;2.03;;;;;;;6.14;73.85;101032.81;10297200;28;20046;-75
2023/10/17 19:39:55;;;;;;;13.55;2.28;;;;;;;5.47;73.85;100942.25;10295475;28;20042;-77
2023/10/17 19:44:56;;;;;;;4.50;1.73;;;;;;;5.85;73.76;101043.81;10296301;28;20491;-77
2023/10/17 19:49:57;;;;;;;6.38;2.28;;;;;;;5.67;74.35;101037.38;10296009;28;20154;-77
2023/10/17 19:54:58;;;;;;;15.75;2.97;;;;;;;5.56;74.22;101024.16;10295061;28;20110;-77
2023/10/17 19:59:58;;;;;;;18.23;5.60;;;;;;;5.53;74.48;101027.03;10295447;28;20529;-77
2023/10/17 20:04:59;;;;;;;20.70;7.32;;;;;;;5.38;74.57;101010.63;10295300;28;20047;-77
2023/10/17 20:10:00;;;;;;;29.95;12.23;;;;;;;5.46;74.78;101045.97;10294458;28;20035;-77
2023/10/17 20:15:01;;;;;;;32.25;10.43;;;;;;;5.26;74.84;101034.34;10295003;28;20039;-77
2023/10/17 20:20:03;;;;;;;27.65;8.63;;;;;;;4.98;75.35;101040.81;10294482;28;20435;-76
2023/10/17 20:25:04;;;;;;;21.65;7.40;;;;;;;4.72;75.48;101011.16;10293797;28;20145;-76
2023/10/17 20:30:05;;;;;;;28.13;6.55;;;;;;;5.00;76.04;101032.81;10293771;28;20051;-76
2023/10/17 20:35:08;;;;;;;29.90;5.80;;;;;;;4.95;75.92;101035.78;10293517;28;20042;-76
2023/10/17 20:40:15;;;;;;;34.80;6.03;;;;;;;5.03;76.05;101051.88;10294381;28;20042;-76
2023/10/17 20:45:16;;;;;;;26.45;6.90;;;;;;;4.68;76.23;101015.00;10293537;28;20409;-76
2023/10/17 20:50:18;;;;;;;34.95;10.07;;;;;;;4.88;76.00;101033.75;10293640;28;20047;-76
2023/10/17 20:55:19;;;;;;;25.73;8.07;;;;;;;4.45;76.55;100979.00;10292627;28;20125;-76
2023/10/17 21:00:20;;;;;;;26.98;6.78;;;;;;;4.79;76.24;101040.53;10293231;28;20049;-79
2023/10/17 21:05:21;;;;;;;36.95;7.78;;;;;;;4.55;77.39;101014.22;10292162;28;20519;-79
2023/10/17 21:10:22;;;;;;;28.58;8.10;;;;;;;4.40;76.78;100992.50;10291558;28;20454;-79
2023/10/17 21:15:24;;;;;;;34.67;9.55;;;;;;;4.25;77.06;100968.16;10292557;28;20097;-79
2023/10/17 21:20:25;;;;;;;33.80;9.82;;;;;;;4.67;77.54;101023.03;10292403;28;20069;-79
2023/10/17 21:25:27;;;;;;;35.20;8.85;;;;;;;4.54;77.79;100988.84;10290961;28;20046;-75
2023/10/17 21:30:28;;;;;;;28.38;7.63;;;;;;;4.70;77.10;101022.78;10291386;28;20414;-74
2023/10/17 21:35:29;;;;;;;22.70;6.60;;;;;;;4.62;77.41;101023.34;10292002;28;20042;-75
2023/10/17 21:40:31;;;;;;;31.35;5.90;;;;;;;4.59;77.90;101018.31;10290520;28;20454;-76
2023/10/17 21:45:32;;;;;;;50.95;6.63;;;;;;;4.52;78.20;101019.72;10292685;28;20483;-75
2023/10/17 21:50:33;;;;;;;37.42;10.15;;;;;;;4.30;77.34;101000.22;10290793;28;20038;-75
2023/10/17 21:55:34;;;;;;;70.13;17.90;;;;;;;4.02;77.83;100961.94;10292672;28;20047;-75
2023/10/17 22:00:38;;;;;;;61.13;16.88;;;;;;;4.18;77.92;100977.44;10291322;28;20414;-76
2023/10/17 22:05:39;;;;;;;;;;;;;;;4.70;79.77;101018.34;10294517;28;20089;-78
2023/10/17 22:10:41;;;;;;;41.92;10.25;;;;;;;4.35;77.83;100957.81;10298464;28;19973;-75
2023/10/17 22:15:42;;;;;;;38.45;10.10;;;;;;;4.72;77.69;101005.91;10299097;28;20042;-76
2023/10/17 22:20:43;;;;;;;36.50;10.05;;;;;;;4.66;78.07;100960.78;10299418;28;20072;-76
2023/10/17 22:25:44;;;;;;;26.50;8.57;;;;;;;5.02;77.86;100984.34;10299119;28;20442;-76
2023/10/17 22:30:44;;;;;;;24.25;7.85;;;;;;;5.35;77.74;101006.41;10299090;28;20050;-76
2023/10/17 22:35:45;;;;;;;29.73;7.75;;;;;;;5.52;77.67;101020.94;10298000;28;20043;-75
2023/10/17 22:40:46;;;;;;;16.92;6.10;;;;;;;5.55;77.98;101018.06;10298347;28;20090;-77
2023/10/17 22:45:47;;;;;;;11.38;3.45;;;;;;;5.49;78.74;100985.13;10298136;28;20069;-77
2023/10/17 22:50:48;;;;;;;6.18;2.40;;;;;;;5.69;77.97;100996.75;10298860;28;20038;-77
2023/10/17 22:55:49;;;;;;;11.48;2.88;;;;;;;5.79;78.56;101001.28;10298258;28;20479;-77
2023/10/17 23:00:50;;;;;;;7.68;2.55;;;;;;;5.96;78.41;101002.63;10297768;28;20042;-76
2023/10/17 23:05:51;;;;;;;8.48;2.28;;;;;;;5.98;78.52;101003.34;10296857;28;20518;-77
2023/10/17 23:10:52;;;;;;;5.25;2.70;;;;;;;6.21;79.07;101004.97;10297135;28;20038;-75
2023/10/17 23:15:52;;;;;;;5.93;2.28;;;;;;;6.31;78.83;101012.97;10296076;28;20066;-75
2023/10/17 23:20:54;;;;;;;6.38;2.13;;;;;;;6.35;79.14;100999.44;10297063;28;20061;-75
2023/10/17 23:25:54;;;;;;;9.90;1.98;;;;;;;6.12;79.33;100953.78;10297174;28;20047;-76
2023/10/17 23:30:56;;;;;;;5.43;2.10;;;;;;;6.19;78.41;100959.41;10296571;28;20039;-76
2023/10/17 23:35:57;;;;;;;19.10;2.17;;;;;;;6.38;78.91;100987.78;10296648;28;20035;-76
2023/10/17 23:40:58;;;;;;;18.08;2.70;;;;;;;6.43;78.53;100993.50;10296178;28;20042;-76
2023/10/17 23:45:58;;;;;;;9.07;1.90;;;;;;;6.40;78.05;100975.28;10295857;28;20047;-76
2023/10/17 23:50:59;;;;;;;6.45;2.05;;;;;;;6.55;77.95;100992.53;10295983;28;20502;-76
2023/10/17 23:56:02;;;;;;;5.85;2.08;;;;;;;6.62;77.38;100977.00;10295508;28;20070;-76
